Time;durP1;ratioP1;P1;durP2;ratioP2;P2;SDS_P1;SDS_P2;PMS_P1;PMS_P2;Temp;Humidity;BMP_temperature;BMP_pressure;BME280_temperature;BME280_humidity;BME280_pressure;Samples;Min_cycle;Max_cycle;Signal;HPM_P1;HPM_P2
2021/10/26 00:00:49;;;;;;;17.25;16.25;;;;;;;;;;5068885;28;20045;-36
2021/10/26 00:03:16;;;;;;;15.50;14.73;;;;;;;;;;5068490;28;20052;-36
2021/10/26 00:05:43;;;;;;;14.90;14.10;;;;;;;;;;5072173;28;20446;-36
2021/10/26 00:08:10;;;;;;;14.48;13.88;;;;;;;;;;5067526;28;20047;-36
2021/10/26 00:10:36;;;;;;;13.25;12.68;;;;;;;;;;5059641;28;20500;-36
2021/10/26 00:13:03;;;;;;;13.27;12.57;;;;;;;;;;5070582;28;20698;-36
2021/10/26 00:15:30;;;;;;;12.93;11.95;;;;;;;;;;5071358;28;20044;-36
2021/10/26 00:17:57;;;;;;;11.15;10.27;;;;;;;;;;5070561;28;20037;-36
2021/10/26 00:20:24;;;;;;;11.00;10.57;;;;;;;;;;5066236;28;20045;-36
2021/10/26 00:22:50;;;;;;;10.60;10.07;;;;;;;;;;5066127;28;20041;-36
2021/10/26 00:25:17;;;;;;;12.65;11.95;;;;;;;;;;5059596;28;20041;-36
2021/10/26 00:27:44;;;;;;;15.02;14.00;;;;;;;;;;5067732;28;20051;-36
2021/10/26 00:30:11;;;;;;;18.98;17.77;;;;;;;;;;5071159;28;20052;-36
2021/10/26 00:32:37;;;;;;;18.73;17.10;;;;;;;;;;5072162;28;20045;-36
2021/10/26 00:35:04;;;;;;;18.65;17.25;;;;;;;;;;5071836;28;20040;-36
2021/10/26 00:37:31;;;;;;;20.15;19.05;;;;;;;;;;5064095;28;20036;-35
2021/10/26 00:39:58;;;;;;;17.85;16.63;;;;;;;;;;5067460;28;20106;-36
2021/10/26 00:42:24;;;;;;;20.13;19.05;;;;;;;;;;5071385;28;20130;-36
2021/10/26 00:44:51;;;;;;;20.15;18.55;;;;;;;;;;5061790;28;20041;-36
2021/10/26 00:47:18;;;;;;;18.88;17.42;;;;;;;;;;5063303;28;20040;-36
2021/10/26 00:49:45;;;;;;;17.95;16.88;;;;;;;;;;5065935;28;20045;-36
2021/10/26 00:52:12;;;;;;;18.65;17.65;;;;;;;;;;5067186;28;20377;-36
2021/10/26 00:54:38;;;;;;;17.95;17.27;;;;;;;;;;5070367;28;20040;-36
2021/10/26 00:57:06;;;;;;;18.08;17.02;;;;;;;;;;5072640;28;20538;-36
2021/10/26 00:59:33;;;;;;;19.27;18.20;;;;;;;;;;5070603;28;20032;-36
2021/10/26 01:02:00;;;;;;;16.38;15.45;;;;;;;;;;5071673;28;20155;-36
2021/10/26 01:04:27;;;;;;;17.17;16.38;;;;;;;;;;5071243;28;20052;-36
2021/10/26 01:06:56;;;;;;;17.08;16.35;;;;;;;;;;5071354;28;20500;-36
2021/10/26 01:09:22;;;;;;;17.15;16.35;;;;;;;;;;5070629;28;20369;-36
2021/10/26 01:11:49;;;;;;;16.95;16.08;;;;;;;;;;5070876;28;20071;-36
2021/10/26 01:14:16;;;;;;;14.60;13.93;;;;;;;;;;5071190;28;20048;-36
2021/10/26 01:16:43;;;;;;;15.02;14.50;;;;;;;;;;5070888;28;20044;-36
2021/10/26 01:19:10;;;;;;;17.40;16.60;;;;;;;;;;5068049;28;20419;-36
2021/10/26 01:21:37;;;;;;;19.33;18.00;;;;;;;;;;5070405;28;20044;-36
2021/10/26 01:24:04;;;;;;;19.20;18.20;;;;;;;;;;5069814;28;20060;-36
2021/10/26 01:26:33;;;;;;;20.27;19.13;;;;;;;;;;5070220;28;20123;-36
2021/10/26 01:29:00;;;;;;;21.63;20.33;;;;;;;;;;5068677;28;20118;-36
2021/10/26 01:31:27;;;;;;;22.35;20.88;;;;;;;;;;5069349;28;20062;-36
2021/10/26 01:33:54;;;;;;;19.75;18.58;;;;;;;;;;5072746;28;20106;-36
2021/10/26 01:36:22;;;;;;;19.85;18.83;;;;;;;;;;5066409;28;20068;-36
2021/10/26 01:38:49;;;;;;;19.50;18.52;;;;;;;;;;5062935;28;20033;-36
2021/10/26 01:41:16;;;;;;;18.63;17.52;;;;;;;;;;5061522;28;20075;-36
2021/10/26 01:43:43;;;;;;;17.92;17.05;;;;;;;;;;5060825;28;20451;-36
2021/10/26 01:46:09;;;;;;;18.23;17.40;;;;;;;;;;5070167;28;20107;-36
2021/10/26 01:48:36;;;;;;;18.50;17.52;;;;;;;;;;5067306;28;20037;-36
2021/10/26 01:51:03;;;;;;;20.13;19.23;;;;;;;;;;5067938;28;20044;-36
2021/10/26 01:53:30;;;;;;;18.73;17.88;;;;;;;;;;5061795;28;20045;-36
2021/10/26 01:55:57;;;;;;;19.15;17.88;;;;;;;;;;5060887;28;20492;-36
2021/10/26 01:58:24;;;;;;;19.15;18.17;;;;;;;;;;5062508;28;20066;-36
2021/10/26 02:00:50;;;;;;;16.88;15.98;;;;;;;;;;5067545;28;20427;-36
2021/10/26 02:03:17;;;;;;;19.00;17.92;;;;;;;;;;5069712;28;20055;-36
2021/10/26 02:05:44;;;;;;;18.77;18.05;;;;;;;;;;5058975;28;20429;-36
2021/10/26 02:08:11;;;;;;;18.77;17.98;;;;;;;;;;5068186;28;20391;-36
2021/10/26 02:10:38;;;;;;;17.20;16.60;;;;;;;;;;5070694;28;20045;-36
2021/10/26 02:13:04;;;;;;;18.85;18.10;;;;;;;;;;5064370;28;20106;-36
2021/10/26 02:15:31;;;;;;;17.65;16.88;;;;;;;;;;5068557;28;20101;-36
2021/10/26 02:17:58;;;;;;;17.00;16.52;;;;;;;;;;5069642;28;20086;-36
2021/10/26 02:20:25;;;;;;;19.33;18.42;;;;;;;;;;5066352;28;20044;-36
2021/10/26 02:22:52;;;;;;;16.85;16.20;;;;;;;;;;5063576;28;20036;-36
2021/10/26 02:25:19;;;;;;;17.08;16.25;;;;;;;;;;5068547;28;20063;-36
2021/10/26 02:27:46;;;;;;;18.25;17.42;;;;;;;;;;5058320;28;20045;-36
2021/10/26 02:30:13;;;;;;;18.67;18.02;;;;;;;;;;5070381;28;20036;-36
2021/10/26 02:32:39;;;;;;;20.77;19.38;;;;;;;;;;5067256;28;20704;-36
2021/10/26 02:35:06;;;;;;;19.40;18.63;;;;;;;;;;5070386;28;20045;-36
2021/10/26 02:37:33;;;;;;;22.88;21.40;;;;;;;;;;5061515;28;20041;-36
2021/10/26 02:40:00;;;;;;;20.33;18.83;;;;;;;;;;5065905;28;20033;-36
2021/10/26 02:42:26;;;;;;;23.50;22.15;;;;;;;;;;5070084;28;20044;-36
2021/10/26 02:44:53;;;;;;;20.63;19.83;;;;;;;;;;5069075;28;20107;-36
2021/10/26 02:47:20;;;;;;;20.30;18.95;;;;;;;;;;5070074;28;20779;-36
2021/10/26 02:49:46;;;;;;;20.70;19.65;;;;;;;;;;5062039;28;20049;-36
2021/10/26 02:52:13;;;;;;;22.30;21.08;;;;;;;;;;5070981;28;20040;-36
2021/10/26 02:54:40;;;;;;;23.08;21.52;;;;;;;;;;5068384;28;20045;-36
2021/10/26 02:57:07;;;;;;;19.95;18.80;;;;;;;;;;5070213;28;20519;-35
2021/10/26 02:59:34;;;;;;;17.67;17.15;;;;;;;;;;5074274;28;20068;-35
2021/10/26 03:02:01;;;;;;;18.90;17.98;;;;;;;;;;5072859;28;20037;-36
2021/10/26 03:04:28;;;;;;;18.73;18.13;;;;;;;;;;5070184;28;20054;-36
2021/10/26 03:06:55;;;;;;;17.95;16.92;;;;;;;;;;5072753;28;20131;-36
2021/10/26 03:09:21;;;;;;;16.70;16.17;;;;;;;;;;5069479;28;20041;-36
2021/10/26 03:11:48;;;;;;;18.27;17.42;;;;;;;;;;5069129;28;20028;-36
2021/10/26 03:14:15;;;;;;;17.02;16.33;;;;;;;;;;5072839;28;20052;-36
2021/10/26 03:16:42;;;;;;;16.13;15.23;;;;;;;;;;5072644;28;20040;-36
2021/10/26 03:19:08;;;;;;;18.67;17.38;;;;;;;;;;5056305;28;20037;-36
2021/10/26 03:21:39;;;;;;;16.85;16.45;;;;;;;;;;5073110;28;20532;-36
2021/10/26 03:24:05;;;;;;;18.20;17.67;;;;;;;;;;5067137;28;20051;-35
2021/10/26 03:26:33;;;;;;;17.48;16.95;;;;;;;;;;5068023;28;20037;-36
2021/10/26 03:28:59;;;;;;;16.05;15.73;;;;;;;;;;5071945;28;20037;-36
2021/10/26 03:31:27;;;;;;;17.50;16.45;;;;;;;;;;5073870;28;20113;-36
2021/10/26 03:33:53;;;;;;;17.45;16.77;;;;;;;;;;5073306;28;20049;-36
2021/10/26 03:36:20;;;;;;;19.92;19.20;;;;;;;;;;5072038;28;20079;-36
2021/10/26 03:38:49;;;;;;;18.63;18.08;;;;;;;;;;5074032;28;20049;-36
2021/10/26 03:41:16;;;;;;;18.90;18.15;;;;;;;;;;5069204;28;20119;-36
2021/10/26 03:43:43;;;;;;;16.50;16.10;;;;;;;;;;5071114;28;20063;-36
2021/10/26 03:46:12;;;;;;;18.88;18.08;;;;;;;;;;5072375;28;20064;-36
2021/10/26 03:48:39;;;;;;;23.23;21.13;;;;;;;;;;5072848;28;20051;-36
2021/10/26 03:51:06;;;;;;;19.98;19.02;;;;;;;;;;5072914;28;20055;-35
2021/10/26 03:53:33;;;;;;;18.55;18.05;;;;;;;;;;5070063;28;20090;-36
2021/10/26 03:55:59;;;;;;;21.75;20.77;;;;;;;;;;5064364;28;20083;-36
2021/10/26 03:58:26;;;;;;;18.80;18.33;;;;;;;;;;5069320;28;20801;-36
2021/10/26 04:00:53;;;;;;;20.48;19.75;;;;;;;;;;5069907;28;20045;-35
2021/10/26 04:03:20;;;;;;;19.58;19.02;;;;;;;;;;5071795;28;20037;-36
2021/10/26 04:06:14;;;;;;;19.67;18.90;;;;;;;;;;5072207;28;20037;-35
2021/10/26 04:11:13;;;;;;;21.25;20.38;;;;;;;;;;5072622;28;20380;-35
2021/10/26 04:13:40;;;;;;;20.48;18.95;;;;;;;;;;5071032;28;20556;-36
2021/10/26 04:16:07;;;;;;;17.55;16.60;;;;;;;;;;5072383;28;20041;-36
2021/10/26 04:18:34;;;;;;;19.20;18.25;;;;;;;;;;5068060;28;20369;-36
2021/10/26 04:21:01;;;;;;;17.67;17.17;;;;;;;;;;5071337;28;20033;-36
2021/10/26 04:23:28;;;;;;;18.67;18.13;;;;;;;;;;5067172;28;20040;-36
2021/10/26 04:25:55;;;;;;;18.17;16.88;;;;;;;;;;5066875;28;20060;-35
2021/10/26 04:28:22;;;;;;;20.92;20.13;;;;;;;;;;5069584;28;20044;-36
2021/10/26 04:30:49;;;;;;;19.95;18.75;;;;;;;;;;5067092;28;20045;-36
2021/10/26 04:33:16;;;;;;;21.58;20.50;;;;;;;;;;5069937;28;20071;-35
2021/10/26 04:35:43;;;;;;;19.40;18.58;;;;;;;;;;5054941;28;20853;-35
2021/10/26 04:38:09;;;;;;;19.83;19.17;;;;;;;;;;5065122;28;20059;-35
2021/10/26 04:40:36;;;;;;;20.17;19.08;;;;;;;;;;5062759;28;20101;-35
2021/10/26 04:43:03;;;;;;;18.35;17.63;;;;;;;;;;5073081;28;20388;-35
2021/10/26 04:45:31;;;;;;;18.02;16.95;;;;;;;;;;5071853;28;20119;-35
2021/10/26 04:47:58;;;;;;;19.40;18.70;;;;;;;;;;5068310;28;20411;-35
2021/10/26 04:50:30;;;;;;;19.80;18.95;;;;;;;;;;5069348;28;20049;-35
2021/10/26 04:52:56;;;;;;;19.73;18.75;;;;;;;;;;5071760;28;20045;-36
2021/10/26 04:55:23;;;;;;;17.77;17.02;;;;;;;;;;5071075;28;20087;-35
2021/10/26 04:57:50;;;;;;;17.23;16.73;;;;;;;;;;5072610;28;20463;-35
2021/10/26 05:00:17;;;;;;;16.45;16.00;;;;;;;;;;5072187;28;20041;-35
2021/10/26 05:02:44;;;;;;;16.70;16.25;;;;;;;;;;5069191;28;20067;-36
2021/10/26 05:05:11;;;;;;;14.63;14.23;;;;;;;;;;5071369;28;20518;-35
2021/10/26 05:07:37;;;;;;;17.25;16.73;;;;;;;;;;5071611;28;20443;-36
2021/10/26 05:10:05;;;;;;;17.85;17.27;;;;;;;;;;5069553;28;20037;-35
2021/10/26 05:12:32;;;;;;;17.50;17.05;;;;;;;;;;5070271;28;20040;-36
2021/10/26 05:14:59;;;;;;;20.05;18.75;;;;;;;;;;5067479;28;20385;-35
2021/10/26 05:17:26;;;;;;;17.80;17.15;;;;;;;;;;5069769;28;20040;-35
2021/10/26 05:19:54;;;;;;;15.70;14.98;;;;;;;;;;5067587;28;20051;-35
2021/10/26 05:22:24;;;;;;;19.90;19.30;;;;;;;;;;5071393;28;20083;-35
2021/10/26 05:24:51;;;;;;;18.20;17.80;;;;;;;;;;5056449;28;20052;-49
2021/10/26 05:27:19;;;;;;;19.25;18.60;;;;;;;;;;5065659;28;20083;-45
2021/10/26 05:29:46;;;;;;;18.88;18.05;;;;;;;;;;5053038;28;20681;-46
2021/10/26 05:32:14;;;;;;;19.70;19.23;;;;;;;;;;5070412;28;20528;-47
2021/10/26 05:34:41;;;;;;;19.33;18.90;;;;;;;;;;5069762;28;20048;-45
2021/10/26 05:37:10;;;;;;;19.70;18.85;;;;;;;;;;5061946;28;20033;-49
2021/10/26 05:39:38;;;;;;;19.15;18.65;;;;;;;;;;5064890;28;20029;-47
2021/10/26 05:42:06;;;;;;;19.92;19.23;;;;;;;;;;5069741;28;20040;-48
2021/10/26 05:44:34;;;;;;;18.50;17.80;;;;;;;;;;5069753;28;20032;-46
2021/10/26 05:47:01;;;;;;;20.80;19.85;;;;;;;;;;5071655;28;20037;-46
2021/10/26 05:49:28;;;;;;;22.05;21.02;;;;;;;;;;5069580;28;20048;-45
2021/10/26 05:51:55;;;;;;;18.58;18.00;;;;;;;;;;5071457;28;20047;-48
2021/10/26 05:54:22;;;;;;;19.85;19.08;;;;;;;;;;5070935;28;20072;-45
2021/10/26 05:56:48;;;;;;;19.88;19.38;;;;;;;;;;5068149;28;20037;-46
2021/10/26 05:59:15;;;;;;;20.65;19.80;;;;;;;;;;5067976;28;20044;-46
2021/10/26 06:01:43;;;;;;;22.77;21.52;;;;;;;;;;5068333;28;20056;-45
2021/10/26 06:04:09;;;;;;;20.98;20.13;;;;;;;;;;5066781;28;20369;-45
2021/10/26 06:06:37;;;;;;;32.17;29.98;;;;;;;;;;5060368;28;20041;-47
2021/10/26 06:09:03;;;;;;;24.33;23.10;;;;;;;;;;5066750;28;20060;-46
2021/10/26 06:11:30;;;;;;;22.98;21.38;;;;;;;;;;5069485;28;20060;-45
2021/10/26 06:14:15;;;;;;;21.13;20.00;;;;;;;;;;5068698;28;20032;-47
2021/10/26 06:16:42;;;;;;;19.25;18.73;;;;;;;;;;5068519;28;20045;-45
2021/10/26 06:19:09;;;;;;;19.00;18.27;;;;;;;;;;5059438;28;20060;-48
2021/10/26 06:21:36;;;;;;;20.85;19.80;;;;;;;;;;5064621;28;20120;-47
2021/10/26 06:24:03;;;;;;;19.55;18.50;;;;;;;;;;5066315;28;20083;-50
2021/10/26 06:26:30;;;;;;;21.75;20.98;;;;;;;;;;5068664;28;20098;-46
2021/10/26 06:28:57;;;;;;;35.95;32.70;;;;;;;;;;5062567;28;20109;-46
2021/10/26 06:31:24;;;;;;;20.08;18.92;;;;;;;;;;5069256;28;20036;-46
2021/10/26 06:33:51;;;;;;;24.63;23.02;;;;;;;;;;5069600;28;20386;-44
2021/10/26 06:36:17;;;;;;;21.17;20.25;;;;;;;;;;5052735;28;20040;-43
2021/10/26 06:38:49;;;;;;;20.85;20.13;;;;;;;;;;5068561;28;20037;-44
2021/10/26 06:41:16;;;;;;;19.13;18.42;;;;;;;;;;5079688;28;20127;-43
2021/10/26 06:43:42;;;;;;;18.50;17.90;;;;;;;;;;5067875;28;20060;-43
2021/10/26 06:46:09;;;;;;;17.63;16.92;;;;;;;;;;5069503;28;20048;-44
2021/10/26 06:48:36;;;;;;;19.75;18.73;;;;;;;;;;5068349;28;20045;-42
2021/10/26 06:51:02;;;;;;;19.30;18.30;;;;;;;;;;5068141;28;20044;-45
2021/10/26 06:53:29;;;;;;;19.40;18.80;;;;;;;;;;5068782;28;20043;-46
2021/10/26 06:56:03;;;;;;;19.40;18.42;;;;;;;;;;5069800;28;20041;-43
2021/10/26 06:58:31;;;;;;;20.42;19.58;;;;;;;;;;5066731;28;20055;-45
2021/10/26 07:00:57;;;;;;;20.98;19.95;;;;;;;;;;5058989;28;20051;-45
2021/10/26 07:03:25;;;;;;;20.52;19.55;;;;;;;;;;5065734;28;20036;-44
2021/10/26 07:05:51;;;;;;;19.65;18.70;;;;;;;;;;5069021;28;20496;-45
2021/10/26 07:08:18;;;;;;;20.92;20.02;;;;;;;;;;5068642;28;20416;-43
2021/10/26 07:10:51;;;;;;;20.55;19.10;;;;;;;;;;5067980;28;20118;-47
2021/10/26 07:13:18;;;;;;;22.45;20.38;;;;;;;;;;5063236;28;20051;-43
2021/10/26 07:15:45;;;;;;;19.42;18.50;;;;;;;;;;5066340;28;20044;-43
2021/10/26 07:18:12;;;;;;;22.70;21.38;;;;;;;;;;5068609;28;20040;-44
2021/10/26 07:20:39;;;;;;;22.00;20.67;;;;;;;;;;5070259;28;20048;-46
2021/10/26 07:23:10;;;;;;;23.20;20.13;;;;;;;;;;5067459;28;20094;-44
2021/10/26 07:25:37;;;;;;;56.03;40.95;;;;;;;;;;5067008;28;20033;-44
2021/10/26 07:28:04;;;;;;;21.58;20.55;;;;;;;;;;5066019;28;20063;-43
2021/10/26 07:30:35;;;;;;;19.90;18.90;;;;;;;;;;5069608;28;20090;-48
2021/10/26 07:33:04;;;;;;;18.55;17.55;;;;;;;;;;5069322;28;20407;-45
2021/10/26 07:35:41;;;;;;;18.33;17.45;;;;;;;;;;5066326;28;20049;-45
2021/10/26 07:38:10;;;;;;;17.60;16.65;;;;;;;;;;5070747;28;20036;-46
2021/10/26 07:40:36;;;;;;;18.02;16.60;;;;;;;;;;5067315;28;21571;-44
2021/10/26 07:43:03;;;;;;;13.60;13.07;;;;;;;;;;5072234;28;20435;-44
2021/10/26 07:45:30;;;;;;;16.00;14.88;;;;;;;;;;5072491;28;20044;-44
2021/10/26 07:47:57;;;;;;;14.90;14.13;;;;;;;;;;5072865;28;20040;-47
2021/10/26 07:50:24;;;;;;;13.85;13.05;;;;;;;;;;5072456;28;20036;-45
2021/10/26 07:52:51;;;;;;;11.60;11.35;;;;;;;;;;5073472;28;20045;-44
2021/10/26 07:55:17;;;;;;;11.90;11.52;;;;;;;;;;5072035;28;20052;-43
2021/10/26 07:57:47;;;;;;;12.48;11.90;;;;;;;;;;5071011;28;20025;-44
2021/10/26 08:00:14;;;;;;;13.15;12.52;;;;;;;;;;5071766;28;20102;-43
2021/10/26 08:02:41;;;;;;;6.50;6.00;;;;;;;;;;5072595;28;20771;-45
2021/10/26 08:05:08;;;;;;;12.95;11.95;;;;;;;;;;5072326;28;20048;-43
2021/10/26 08:07:35;;;;;;;12.52;11.73;;;;;;;;;;5071048;28;20045;-44
2021/10/26 08:10:03;;;;;;;15.20;13.98;;;;;;;;;;5066043;28;20037;-45
2021/10/26 08:12:29;;;;;;;10.00;9.20;;;;;;;;;;5056780;28;20051;-42
2021/10/26 08:14:56;;;;;;;15.18;13.80;;;;;;;;;;5072523;28;20048;-44
2021/10/26 08:17:23;;;;;;;13.07;12.18;;;;;;;;;;5069908;28;20048;-46
2021/10/26 08:19:50;;;;;;;7.25;6.70;;;;;;;;;;5071169;28;20036;-45
2021/10/26 08:22:18;;;;;;;9.90;9.13;;;;;;;;;;5071557;28;20052;-45
2021/10/26 08:24:46;;;;;;;15.05;13.52;;;;;;;;;;5071387;28;20476;-44
2021/10/26 08:27:15;;;;;;;10.80;10.15;;;;;;;;;;5064098;28;20397;-43
2021/10/26 08:35:25;;;;;;;72.93;50.75;;;;;;;;;;5070487;28;20447;-46
2021/10/26 08:37:54;;;;;;;17.88;14.90;;;;;;;;;;5060351;28;20044;-43
2021/10/26 08:40:21;;;;;;;27.63;22.75;;;;;;;;;;5069997;28;20056;-45
2021/10/26 08:42:48;;;;;;;11.10;10.15;;;;;;;;;;5070486;28;20024;-43
2021/10/26 08:45:18;;;;;;;9.02;8.48;;;;;;;;;;5068947;28;20041;-43
2021/10/26 08:47:45;;;;;;;25.38;22.00;;;;;;;;;;5070168;28;20048;-43
2021/10/26 08:50:12;;;;;;;7.47;5.70;;;;;;;;;;5058144;28;20044;-44
2021/10/26 08:52:40;;;;;;;8.45;3.25;;;;;;;;;;5063191;28;20468;-43
2021/10/26 08:55:07;;;;;;;3.50;3.20;;;;;;;;;;5070715;28;20070;-43
2021/10/26 08:57:34;;;;;;;4.95;4.55;;;;;;;;;;5053972;28;20025;-42
2021/10/26 09:00:06;;;;;;;8.25;7.18;;;;;;;;;;5067847;28;20123;-45
2021/10/26 09:02:34;;;;;;;4.85;3.78;;;;;;;;;;5070680;28;20041;-44
2021/10/26 09:05:08;;;;;;;6.10;4.43;;;;;;;;;;5065161;28;20072;-43
2021/10/26 09:07:36;;;;;;;4.45;4.05;;;;;;;;;;5066589;28;20048;-45
2021/10/26 09:10:13;;;;;;;6.35;3.22;;;;;;;;;;5070152;28;20120;-47
2021/10/26 09:17:56;;;;;;;2.80;2.60;;;;;;;;;;5071234;28;20028;-43
2021/10/26 09:20:26;;;;;;;2.90;2.67;;;;;;;;;;5066685;28;20452;-45
2021/10/26 09:22:57;;;;;;;3.47;3.28;;;;;;;;;;5071106;28;20371;-44
2021/10/26 09:25:35;;;;;;;4.85;3.10;;;;;;;;;;5071451;28;20106;-43
2021/10/26 09:28:11;;;;;;;2.80;2.60;;;;;;;;;;5069350;28;20033;-43
2021/10/26 09:30:38;;;;;;;2.42;2.22;;;;;;;;;;5059793;28;20037;-47
2021/10/26 09:33:08;;;;;;;2.13;2.03;;;;;;;;;;5066267;28;20044;-47
2021/10/26 09:35:35;;;;;;;3.53;3.22;;;;;;;;;;5070508;28;20033;-43
2021/10/26 09:38:03;;;;;;;2.22;2.00;;;;;;;;;;5068197;28;20556;-46
2021/10/26 09:40:40;;;;;;;2.10;2.00;;;;;;;;;;5069352;28;20079;-45
2021/10/26 09:43:07;;;;;;;1.63;1.42;;;;;;;;;;5070576;28;20028;-45
2021/10/26 09:45:34;;;;;;;1.90;1.80;;;;;;;;;;5068368;28;20062;-45
2021/10/26 09:48:12;;;;;;;2.25;2.13;;;;;;;;;;5070394;28;20071;-45
2021/10/26 09:50:40;;;;;;;7.80;7.20;;;;;;;;;;5068180;28;22436;-44
2021/10/26 09:53:17;;;;;;;2.08;1.98;;;;;;;;;;5069972;28;20048;-43
2021/10/26 09:55:47;;;;;;;11.38;10.23;;;;;;;;;;5071178;28;20036;-44
2021/10/26 09:58:18;;;;;;;3.55;2.97;;;;;;;;;;5066455;28;20036;-47
2021/10/26 10:00:46;;;;;;;5.82;5.50;;;;;;;;;;5068058;28;20087;-45
2021/10/26 10:03:17;;;;;;;2.58;2.42;;;;;;;;;;5066332;28;20044;-46
2021/10/26 10:05:54;;;;;;;10.55;9.45;;;;;;;;;;5062611;28;20132;-46
2021/10/26 10:08:29;;;;;;;5.35;4.55;;;;;;;;;;5063265;28;20028;-47
2021/10/26 10:11:09;;;;;;;12.43;11.13;;;;;;;;;;5065121;28;20040;-45
2021/10/26 10:13:54;;;;;;;4.53;4.22;;;;;;;;;;5068102;28;20045;-44
2021/10/26 10:16:21;;;;;;;5.80;2.25;;;;;;;;;;5059662;28;20116;-44
2021/10/26 10:18:48;;;;;;;2.67;1.80;;;;;;;;;;5061756;28;20505;-48
2021/10/26 10:21:17;;;;;;;2.00;1.80;;;;;;;;;;5069946;28;20048;-44
2021/10/26 10:23:47;;;;;;;5.75;1.83;;;;;;;;;;5066581;28;20432;-45
2021/10/26 10:26:15;;;;;;;5.32;3.58;;;;;;;;;;5068966;28;20392;-45
2021/10/26 10:28:49;;;;;;;3.42;3.03;;;;;;;;;;5067436;28;20522;-45
2021/10/26 10:31:19;;;;;;;3.25;2.90;;;;;;;;;;5069074;28;20740;-46
2021/10/26 10:33:46;;;;;;;2.45;2.22;;;;;;;;;;5069219;28;20040;-46
2021/10/26 10:36:15;;;;;;;2.63;1.85;;;;;;;;;;5070405;28;20507;-45
2021/10/26 10:38:41;;;;;;;5.20;4.82;;;;;;;;;;5056355;28;20427;-45
2021/10/26 10:41:24;;;;;;;2.67;2.42;;;;;;;;;;5067612;28;21854;-45
2021/10/26 10:43:51;;;;;;;3.38;3.15;;;;;;;;;;5066851;28;20044;-45
2021/10/26 10:46:37;;;;;;;2.35;2.25;;;;;;;;;;5069780;28;20052;-45
2021/10/26 10:49:18;;;;;;;3.55;2.00;;;;;;;;;;5065502;28;20064;-47
2021/10/26 10:52:04;;;;;;;3.72;2.67;;;;;;;;;;5057505;28;20040;-45
2021/10/26 10:54:37;;;;;;;2.20;2.00;;;;;;;;;;5069457;28;20040;-46
2021/10/26 10:57:04;;;;;;;;;;;;;;;;;;5067946;28;20064;-45
2021/10/26 10:59:41;;;;;;;2.40;1.85;;;;;;;;;;5068480;28;20332;-45
2021/10/26 11:02:40;;;;;;;2.17;2.03;;;;;;;;;;5066301;28;20024;-44
2021/10/26 11:05:27;;;;;;;2.35;2.25;;;;;;;;;;5071207;28;20048;-45
2021/10/26 11:07:54;;;;;;;3.55;2.42;;;;;;;;;;5068135;28;20637;-45
2021/10/26 11:10:21;;;;;;;1.73;1.65;;;;;;;;;;5065712;28;20378;-44
2021/10/26 11:12:48;;;;;;;2.25;2.03;;;;;;;;;;5060399;28;20048;-45
2021/10/26 11:15:35;;;;;;;2.17;2.08;;;;;;;;;;5068681;28;20532;-44
2021/10/26 11:18:03;;;;;;;2.88;2.35;;;;;;;;;;5062849;28;20061;-44
2021/10/26 11:20:29;;;;;;;4.00;2.40;;;;;;;;;;5060920;28;20048;-45
2021/10/26 11:23:03;;;;;;;4.05;2.03;;;;;;;;;;5068012;28;20042;-45
2021/10/26 11:25:34;;;;;;;3.20;2.25;;;;;;;;;;5071734;28;20496;-46
2021/10/26 11:28:25;;;;;;;1.98;1.80;;;;;;;;;;5068877;28;20109;-44
2021/10/26 11:30:52;;;;;;;2.30;2.10;;;;;;;;;;5068635;28;20542;-44
2021/10/26 11:33:25;;;;;;;2.55;1.65;;;;;;;;;;5070001;28;20467;-44
2021/10/26 11:36:07;;;;;;;2.80;2.38;;;;;;;;;;5069671;28;20099;-45
2021/10/26 11:38:50;;;;;;;2.20;2.10;;;;;;;;;;5071655;28;20052;-46
2021/10/26 11:41:17;;;;;;;;;;;;;;;;;;5065331;28;20056;-44
2021/10/26 11:43:47;;;;;;;2.08;1.98;;;;;;;;;;5067119;28;19928;-47
2021/10/26 11:46:14;;;;;;;3.88;2.42;;;;;;;;;;5072131;28;20475;-49
2021/10/26 11:48:42;;;;;;;2.28;2.05;;;;;;;;;;5071308;28;20106;-45
2021/10/26 11:51:21;;;;;;;2.08;1.90;;;;;;;;;;5070048;28;20504;-47
2021/10/26 11:53:49;;;;;;;1.90;1.80;;;;;;;;;;5071793;28;20469;-43
2021/10/26 11:56:24;;;;;;;4.60;2.38;;;;;;;;;;5071323;28;20051;-45
2021/10/26 11:58:55;;;;;;;1.90;1.80;;;;;;;;;;5072319;28;20037;-45
2021/10/26 12:01:31;;;;;;;1.75;1.65;;;;;;;;;;5071718;28;20128;-44
2021/10/26 12:03:58;;;;;;;2.10;2.00;;;;;;;;;;5071422;28;20060;-44
2021/10/26 12:06:34;;;;;;;6.20;1.70;;;;;;;;;;5061022;28;20476;-45
2021/10/26 12:09:02;;;;;;;3.53;1.80;;;;;;;;;;5069693;28;20044;-45
2021/10/26 12:11:36;;;;;;;3.83;2.15;;;;;;;;;;5067620;28;20226;-44
2021/10/26 12:14:02;;;;;;;;;;;;;;;;;;5073552;28;20040;-43
2021/10/26 12:16:29;;;;;;;2.05;1.65;;;;;;;;;;5071182;28;19927;-47
2021/10/26 12:18:56;;;;;;;1.98;1.88;;;;;;;;;;5068257;28;20048;-45
2021/10/26 12:21:23;;;;;;;1.77;1.67;;;;;;;;;;5073098;28;20081;-45
2021/10/26 12:23:52;;;;;;;5.45;2.35;;;;;;;;;;5069063;28;20053;-45
2021/10/26 12:26:19;;;;;;;2.30;2.20;;;;;;;;;;5069730;28;20064;-46
2021/10/26 12:28:55;;;;;;;1.80;1.70;;;;;;;;;;5070289;28;20040;-45
2021/10/26 12:31:24;;;;;;;2.47;2.28;;;;;;;;;;5072371;28;20048;-43
2021/10/26 12:34:01;;;;;;;1.75;1.52;;;;;;;;;;5067215;28;20044;-44
2021/10/26 12:36:28;;;;;;;3.95;1.77;;;;;;;;;;5070854;28;20045;-44
2021/10/26 12:39:04;;;;;;;5.90;2.10;;;;;;;;;;5070575;28;20120;-43
2021/10/26 12:41:37;;;;;;;3.85;2.22;;;;;;;;;;5069423;28;20041;-44
2021/10/26 12:44:04;;;;;;;;;;;;;;;;;;5060008;28;20436;-44
2021/10/26 12:46:31;;;;;;;2.38;2.20;;;;;;;;;;5066624;28;19926;-46
2021/10/26 12:49:04;;;;;;;1.65;1.55;;;;;;;;;;5085924;28;20036;-45
2021/10/26 12:51:31;;;;;;;2.90;2.67;;;;;;;;;;5071849;28;20037;-45
2021/10/26 12:54:08;;;;;;;3.42;2.05;;;;;;;;;;5068770;28;20128;-44
2021/10/26 12:56:43;;;;;;;2.10;1.92;;;;;;;;;;5070348;28;20059;-45
2021/10/26 12:59:09;;;;;;;2.50;2.08;;;;;;;;;;5069836;28;20064;-46
2021/10/26 13:01:38;;;;;;;2.08;1.95;;;;;;;;;;5071810;28;20044;-46
2021/10/26 13:04:14;;;;;;;2.55;2.20;;;;;;;;;;5070069;28;20049;-44
2021/10/26 13:06:52;;;;;;;2.28;2.13;;;;;;;;;;5070382;28;20040;-47
2021/10/26 13:09:36;;;;;;;2.30;2.20;;;;;;;;;;5072173;28;20131;-47
2021/10/26 13:12:07;;;;;;;2.65;2.40;;;;;;;;;;5069550;28;20123;-49
2021/10/26 13:14:44;;;;;;;2.72;2.47;;;;;;;;;;5070485;28;20066;-45
2021/10/26 13:17:23;;;;;;;3.55;2.17;;;;;;;;;;5072229;28;20044;-45
2021/10/26 13:19:50;;;;;;;2.53;2.42;;;;;;;;;;5065623;28;20043;-45
2021/10/26 13:22:17;;;;;;;2.17;2.00;;;;;;;;;;5071241;28;20037;-45
2021/10/26 13:24:44;;;;;;;3.05;2.83;;;;;;;;;;5070280;28;20076;-45
2021/10/26 13:27:12;;;;;;;2.70;2.33;;;;;;;;;;5065569;28;20032;-45
2021/10/26 13:29:41;;;;;;;2.13;2.03;;;;;;;;;;5066048;28;20094;-44
2021/10/26 13:32:21;;;;;;;3.08;2.90;;;;;;;;;;5066266;28;20101;-44
2021/10/26 13:34:51;;;;;;;2.53;2.40;;;;;;;;;;5060425;28;20098;-47
2021/10/26 13:37:19;;;;;;;7.30;3.28;;;;;;;;;;5064236;28;20044;-45
2021/10/26 13:39:46;;;;;;;3.75;3.42;;;;;;;;;;5068595;28;20119;-45
2021/10/26 13:42:13;;;;;;;2.53;2.42;;;;;;;;;;5069461;28;20694;-45
2021/10/26 13:44:41;;;;;;;3.38;3.08;;;;;;;;;;5069458;28;20452;-45
2021/10/26 13:47:07;;;;;;;3.60;3.40;;;;;;;;;;5068466;28;20074;-47
2021/10/26 13:49:35;;;;;;;3.67;3.58;;;;;;;;;;5066982;28;20060;-47
2021/10/26 13:52:02;;;;;;;4.05;3.95;;;;;;;;;;5071185;28;20051;-43
2021/10/26 13:54:29;;;;;;;4.72;4.40;;;;;;;;;;5069832;28;20115;-43
2021/10/26 13:56:56;;;;;;;4.68;4.05;;;;;;;;;;5063641;28;20052;-45
2021/10/26 13:59:23;;;;;;;4.35;4.15;;;;;;;;;;5069417;28;20037;-43
2021/10/26 14:02:04;;;;;;;4.82;4.45;;;;;;;;;;5069723;28;20040;-45
2021/10/26 14:04:31;;;;;;;4.22;4.13;;;;;;;;;;5070582;28;20101;-45
2021/10/26 14:06:57;;;;;;;5.20;4.80;;;;;;;;;;5066976;28;20041;-45
2021/10/26 14:09:24;;;;;;;5.50;5.18;;;;;;;;;;5067075;28;20066;-45
2021/10/26 14:11:52;;;;;;;6.40;6.20;;;;;;;;;;5068031;28;20045;-45
2021/10/26 14:14:19;;;;;;;3.50;3.35;;;;;;;;;;5069651;28;20449;-47
2021/10/26 14:16:46;;;;;;;6.68;6.15;;;;;;;;;;5069645;28;20045;-43
2021/10/26 14:19:12;;;;;;;6.38;6.07;;;;;;;;;;5065499;28;20112;-44
2021/10/26 14:21:39;;;;;;;6.60;6.07;;;;;;;;;;5063035;28;20039;-46
2021/10/26 14:24:06;;;;;;;5.95;5.78;;;;;;;;;;5068235;28;20032;-45
2021/10/26 14:26:42;;;;;;;8.15;7.68;;;;;;;;;;5067150;28;20135;-44
2021/10/26 14:29:09;;;;;;;7.18;6.97;;;;;;;;;;5068975;28;20040;-43
2021/10/26 14:31:37;;;;;;;6.82;6.38;;;;;;;;;;5065799;28;20116;-45
2021/10/26 14:34:04;;;;;;;7.20;6.90;;;;;;;;;;5061434;28;20037;-46
2021/10/26 14:39:22;;;;;;;8.40;7.93;;;;;;;;;;5069079;28;20548;-45
2021/10/26 14:56:09;;;;;;;7.68;7.47;;;;;;;;;;5066741;28;20066;-46
2021/10/26 14:58:27;;;;;;;7.95;7.30;;;;;;;;;;5074006;28;20106;-47
2021/10/26 15:00:55;;;;;;;5.65;4.32;;;;;;;;;;5069863;28;20268;-45
2021/10/26 15:03:22;;;;;;;7.20;7.10;;;;;;;;;;5076341;28;20044;-49
2021/10/26 15:05:49;;;;;;;6.80;6.32;;;;;;;;;;5073320;28;20085;-47
2021/10/26 15:08:16;;;;;;;9.60;9.20;;;;;;;;;;5074553;28;20072;-45